Flight Track Log - Related Links

Times and Time Zones

All times are in EDT time to prevent confusion due to time zone crossing. See the ASQ4577 flight status page for this flight to view local times or setup timezone preferences in your user account.

Time Position Orientation Groundspeed Altitude Reporting Facility
EDT Latitude Longitude Course Direction KTS MPH feet Rate Location/Type
Wed 20:04:57 41.3897 -81.8867 276° West 172 198 1,900  Level Cleveland Center
Wed 20:06:04 41.3950 -81.9589 276° West 188 216 4,700 2,061 Climbing Cleveland Center
Wed 20:06:36 41.4136 -81.9842 314° West 203 234 5,300 913 Climbing Cleveland Center
Wed 20:07:36 41.4631 -82.0183 333° Northwest 248 285 6,100 1,250 Climbing Cleveland Center
Wed 20:08:36 41.5225 -81.9367 46° Northeast 218 251 7,800 1,850 Climbing Cleveland Center
Wed 20:09:36 41.5797 -81.8461 50° Northeast 283 326 9,800 1,800 Climbing Cleveland Center
Wed 20:10:36 41.6350 -81.7500 52° Northeast 306 352 11,400 1,700 Climbing Cleveland Center
Wed 20:11:36 41.6986 -81.6483 50° Northeast 332 382 13,200 1,800 Climbing Cleveland Center
Wed 20:12:36 41.7475 -81.5350 60° Northeast 347 399 15,000 1,800 Climbing Cleveland Center
Wed 20:13:36 41.7672 -81.4072 78° East 347 399 16,800 1,400 Climbing Cleveland Center
Wed 20:14:36 41.7889 -81.2878 76° East 357 411 17,800 1,050 Climbing Cleveland Center
Wed 20:15:36 41.8106 -81.1458 78° East 374 430 18,900 1,000 Climbing Cleveland Center
Wed 20:16:36 41.8342 -80.9983 78° East 396 456 19,800 900 Climbing Cleveland Center
Wed 20:17:36 41.8597 -80.8397 78° East 417 480 20,700 900 Climbing Cleveland Center
Wed 20:18:36 41.8850 -80.6836 78° East 428 493 21,600 900 Climbing Cleveland Center
Wed 20:19:36 41.9100 -80.5217 78° East 435 501 22,500 900 Climbing Cleveland Center
Wed 20:20:36 41.9369 -80.3458 78° East 435 501 23,400 900 Climbing Cleveland Center
Wed 20:21:36 41.9614 -80.1811 79° East 440 506 24,300 900 Climbing Cleveland Center
Wed 20:22:36 41.9878 -80.0189 78° East 447 514 25,200 900 Climbing Cleveland Center
Wed 20:23:36 42.0119 -79.8567 79° East 447 514 26,100 900 Climbing Cleveland Center
Wed 20:24:36 42.0358 -79.6969 79° East 447 514 27,000 900 Climbing Cleveland Center
Wed 20:25:36 42.0614 -79.5289 78° East 447 514 27,900 900 Climbing Cleveland Center
Wed 20:26:36 42.0850 -79.3717 79° East 447 514 28,800 550 Climbing Cleveland Center
Wed 20:27:36 42.1081 -79.2089 79° East 442 509 29,000 100 Climbing Cleveland Center
Wed 20:28:36 42.1311 -79.0406 79° East 442 509 29,000  Level Cleveland Center
Wed 20:29:36 42.1556 -78.8661 79° East 454 522 29,000  Level Cleveland Center
Wed 20:30:36 42.1800 -78.6889 79° East 470 541 29,000  Level Cleveland Center
Wed 20:31:36 42.2042 -78.5258 79° East 475 547 29,000  Level Cleveland Center
Wed 20:32:36 42.2281 -78.3483 80° East 480 552 29,000  Level Cleveland Center
Wed 20:33:36 42.2517 -78.1708 80° East 480 552 29,000  Level Cleveland Center
Wed 20:34:36 42.2750 -77.9986 80° East 475 547 29,000  Level Cleveland Center
Wed 20:35:36 42.2981 -77.8264 80° East 469 540 29,000  Level Cleveland Center
Wed 20:36:36 42.3189 -77.6625 80° East 464 534 29,000  Level Cleveland Center
Wed 20:37:36 42.3397 -77.4958 80° East 452 520 29,000  Level Cleveland Center
Wed 20:38:36 42.3622 -77.3289 80° East 447 514 29,000  Level Cleveland Center
Wed 20:39:36 42.3825 -77.1647 80° East 447 514 29,000  Level Cleveland Center
Wed 20:40:36 42.4039 -76.9808 81° East 447 514 29,000  Level Cleveland Center
Wed 20:43:15 42.4575 -76.5436 80° East 440 506 29,000  Level Boston Center
Wed 20:44:15 42.4781 -76.3789 80° East 447 514 29,000  Level Boston Center
Wed 20:45:15 42.4936 -76.2250 82° East 447 514 29,000 -250 Level Boston Center
Wed 20:46:15 42.5136 -76.0600 81° East 447 514 28,500 -650 Descending Boston Center
Wed 20:47:15 42.5314 -75.8919 82° East 447 514 27,700 -750 Descending Boston Center
Wed 20:48:15 42.5508 -75.7322 81° East 442 509 27,000 -700 Descending Boston Center
Wed 20:49:15 42.5700 -75.5639 81° East 442 509 26,300 -1,050 Descending Boston Center
Wed 20:50:15 42.5889 -75.4042 81° East 436 502 24,900 -1,400 Descending Boston Center
Wed 20:51:15 42.6033 -75.2469 83° East 436 502 23,500 -1,552 Descending Boston Center
Wed 20:52:11 42.6222 -75.0672 82° East 447 514 21,900 -2,050 Descending Boston Center
Wed 20:53:15 42.6419 -74.9267 79° East 431 496 19,400 -2,903 Descending Boston Center
Wed 20:54:15 42.6933 -74.7706 66° East 406 467 15,900 -3,100 Descending Boston Center
Wed 20:55:15 42.7311 -74.6478 67° East 399 459 13,200 -2,650 Descending Boston Center
Wed 20:56:15 42.7778 -74.4967 67° East 389 448 10,600 -1,600 Descending Boston Center
Wed 20:57:15 42.8067 -74.3928 69° East 356 410 10,000 -1,250 Descending Boston Center
Wed 20:58:15 42.8358 -74.2719 72° East 308 354 8,100 -1,800 Descending Boston Center
Wed 20:59:15 42.8561 -74.1764 74° East 294 338 6,400 -1,600 Descending Boston Center
Wed 21:00:15 42.8828 -74.0608 72° East 289 333 4,900 -1,150 Descending Boston Center
Wed 21:01:15 42.8922 -73.9789 81° East 283 326 4,100 -1,280 Descending Boston Center
Wed 21:01:30 42.8969 -73.9394 81° East 260 299 3,300 -1,900 Descending Boston Center
Wed 21:02:15 42.9022 -73.8600 85° East 266 306 2,200 -1,300 Descending Boston Center
Wed 21:02:30 42.9044 -73.8431 80° East 245 282 2,000 -200 Descending Boston Center
Wed 21:03:15 42.8736 -73.8114 143° Southeast 182 209 2,000  Level Boston Center
Wed 21:03:31 42.8611 -73.8139 188° South 141 162 2,000  Level Boston Center
Wed 21:04:15 42.8533 -73.7542 100° East 175 201 2,000 -393 Level Boston Center
Wed 21:04:32 42.8319 -73.8133 244° Southwest 92 106 1,600 -701 Descending Boston Center
Wed 21:05:32 42.7986 -73.8097 175° South 108 124 1,100 -545 Descending Boston Center
Wed 21:06:33 42.7672 -73.8061 175° South 118 136 500 -590 Descending Boston Center

Login

Don't have an account? Register now (free) for customized features, flight alerts, and more!